sensor_id;sensor_type;location;lat;lon;timestamp;P1;durP1;ratioP1;P2;durP2;ratioP2
55210;SDS011;41082;52.822;6.666;2023-05-25T00:01:58;4.88;;;2.28;;
55210;SDS011;41082;52.822;6.666;2023-05-25T00:04:23;9.90;;;2.20;;
55210;SDS011;41082;52.822;6.666;2023-05-25T00:06:51;6.15;;;2.22;;
55210;SDS011;41082;52.822;6.666;2023-05-25T00:09:17;5.35;;;2.00;;
55210;SDS011;41082;52.822;6.666;2023-05-25T00:11:43;6.63;;;1.70;;
55210;SDS011;41082;52.822;6.666;2023-05-25T00:14:08;4.20;;;1.20;;
55210;SDS011;41082;52.822;6.666;2023-05-25T00:16:34;3.22;;;1.35;;
55210;SDS011;41082;52.822;6.666;2023-05-25T00:19:04;3.08;;;1.10;;
55210;SDS011;41082;52.822;6.666;2023-05-25T00:21:31;5.22;;;1.63;;
55210;SDS011;41082;52.822;6.666;2023-05-25T00:24:02;5.90;;;1.80;;
55210;SDS011;41082;52.822;6.666;2023-05-25T00:26:28;5.32;;;1.80;;
55210;SDS011;41082;52.822;6.666;2023-05-25T00:28:54;5.93;;;1.75;;
55210;SDS011;41082;52.822;6.666;2023-05-25T00:31:20;6.72;;;2.20;;
55210;SDS011;41082;52.822;6.666;2023-05-25T00:33:46;6.85;;;2.10;;
55210;SDS011;41082;52.822;6.666;2023-05-25T00:36:11;5.57;;;1.95;;
55210;SDS011;41082;52.822;6.666;2023-05-25T00:38:37;8.98;;;2.58;;
55210;SDS011;41082;52.822;6.666;2023-05-25T00:41:02;8.75;;;2.10;;
55210;SDS011;41082;52.822;6.666;2023-05-25T00:43:30;5.13;;;2.10;;
55210;SDS011;41082;52.822;6.666;2023-05-25T00:45:55;6.45;;;2.35;;
55210;SDS011;41082;52.822;6.666;2023-05-25T00:48:22;7.93;;;2.88;;
55210;SDS011;41082;52.822;6.666;2023-05-25T00:50:50;8.25;;;2.42;;
55210;SDS011;41082;52.822;6.666;2023-05-25T00:53:24;6.28;;;2.50;;
55210;SDS011;41082;52.822;6.666;2023-05-25T00:58:34;7.05;;;2.50;;
55210;SDS011;41082;52.822;6.666;2023-05-25T01:01:03;8.00;;;3.20;;
55210;SDS011;41082;52.822;6.666;2023-05-25T01:03:35;6.78;;;2.25;;
55210;SDS011;41082;52.822;6.666;2023-05-25T01:06:06;6.65;;;2.88;;
55210;SDS011;41082;52.822;6.666;2023-05-25T01:08:35;11.00;;;3.08;;
55210;SDS011;41082;52.822;6.666;2023-05-25T01:11:02;7.57;;;2.78;;
55210;SDS011;41082;52.822;6.666;2023-05-25T01:13:30;9.48;;;2.70;;
55210;SDS011;41082;52.822;6.666;2023-05-25T01:15:58;10.48;;;2.90;;
55210;SDS011;41082;52.822;6.666;2023-05-25T01:18:24;9.57;;;3.00;;
55210;SDS011;41082;52.822;6.666;2023-05-25T01:20:54;10.25;;;2.58;;
55210;SDS011;41082;52.822;6.666;2023-05-25T01:23:37;9.82;;;2.83;;
55210;SDS011;41082;52.822;6.666;2023-05-25T01:26:12;7.38;;;3.13;;
55210;SDS011;41082;52.822;6.666;2023-05-25T01:28:41;10.57;;;3.05;;
55210;SDS011;41082;52.822;6.666;2023-05-25T01:31:10;6.25;;;2.97;;
55210;SDS011;41082;52.822;6.666;2023-05-25T01:33:38;4.78;;;2.35;;
55210;SDS011;41082;52.822;6.666;2023-05-25T01:36:06;5.03;;;2.15;;
55210;SDS011;41082;52.822;6.666;2023-05-25T01:38:32;6.88;;;2.20;;
55210;SDS011;41082;52.822;6.666;2023-05-25T01:40:58;5.22;;;2.03;;
55210;SDS011;41082;52.822;6.666;2023-05-25T01:43:24;2.35;;;1.40;;
55210;SDS011;41082;52.822;6.666;2023-05-25T01:45:49;3.08;;;1.95;;
55210;SDS011;41082;52.822;6.666;2023-05-25T01:48:24;5.35;;;1.80;;
55210;SDS011;41082;52.822;6.666;2023-05-25T01:51:00;3.08;;;1.80;;
55210;SDS011;41082;52.822;6.666;2023-05-25T01:53:51;2.35;;;1.30;;
55210;SDS011;41082;52.822;6.666;2023-05-25T01:56:22;1.48;;;0.80;;
55210;SDS011;41082;52.822;6.666;2023-05-25T01:58:51;2.78;;;1.40;;
55210;SDS011;41082;52.822;6.666;2023-05-25T02:01:18;1.80;;;0.90;;
55210;SDS011;41082;52.822;6.666;2023-05-25T02:03:45;2.15;;;1.17;;
55210;SDS011;41082;52.822;6.666;2023-05-25T02:06:12;1.88;;;1.45;;
55210;SDS011;41082;52.822;6.666;2023-05-25T02:08:40;2.00;;;0.85;;
55210;SDS011;41082;52.822;6.666;2023-05-25T02:11:07;1.25;;;0.75;;
55210;SDS011;41082;52.822;6.666;2023-05-25T02:13:33;4.85;;;0.90;;
55210;SDS011;41082;52.822;6.666;2023-05-25T02:15:59;1.52;;;0.77;;
55210;SDS011;41082;52.822;6.666;2023-05-25T02:18:24;1.98;;;0.63;;
55210;SDS011;41082;52.822;6.666;2023-05-25T02:20:50;1.60;;;0.60;;
55210;SDS011;41082;52.822;6.666;2023-05-25T02:23:16;3.00;;;0.50;;
55210;SDS011;41082;52.822;6.666;2023-05-25T02:25:42;0.93;;;0.47;;
55210;SDS011;41082;52.822;6.666;2023-05-25T02:28:08;2.95;;;0.98;;
55210;SDS011;41082;52.822;6.666;2023-05-25T02:30:34;2.83;;;1.10;;
55210;SDS011;41082;52.822;6.666;2023-05-25T02:32:59;4.00;;;1.70;;
55210;SDS011;41082;52.822;6.666;2023-05-25T02:35:26;6.80;;;2.67;;
55210;SDS011;41082;52.822;6.666;2023-05-25T02:37:52;5.22;;;2.10;;
55210;SDS011;41082;52.822;6.666;2023-05-25T02:40:17;7.55;;;2.75;;
55210;SDS011;41082;52.822;6.666;2023-05-25T02:42:43;6.80;;;2.60;;
55210;SDS011;41082;52.822;6.666;2023-05-25T02:45:08;6.38;;;2.42;;
55210;SDS011;41082;52.822;6.666;2023-05-25T02:47:35;3.38;;;1.33;;
55210;SDS011;41082;52.822;6.666;2023-05-25T02:50:01;3.95;;;1.25;;
55210;SDS011;41082;52.822;6.666;2023-05-25T02:52:27;2.45;;;1.10;;
55210;SDS011;41082;52.822;6.666;2023-05-25T02:54:54;3.03;;;1.48;;
55210;SDS011;41082;52.822;6.666;2023-05-25T02:57:21;2.60;;;1.20;;
55210;SDS011;41082;52.822;6.666;2023-05-25T02:59:47;1.90;;;1.10;;
55210;SDS011;41082;52.822;6.666;2023-05-25T03:02:13;3.97;;;1.23;;
55210;SDS011;41082;52.822;6.666;2023-05-25T03:04:38;3.28;;;1.00;;
55210;SDS011;41082;52.822;6.666;2023-05-25T03:07:05;2.45;;;1.13;;
55210;SDS011;41082;52.822;6.666;2023-05-25T03:09:31;1.92;;;0.98;;
55210;SDS011;41082;52.822;6.666;2023-05-25T03:11:57;3.95;;;2.00;;
55210;SDS011;41082;52.822;6.666;2023-05-25T03:14:22;3.55;;;2.38;;
55210;SDS011;41082;52.822;6.666;2023-05-25T03:16:48;4.55;;;2.47;;
55210;SDS011;41082;52.822;6.666;2023-05-25T03:19:13;5.07;;;1.92;;
55210;SDS011;41082;52.822;6.666;2023-05-25T03:21:39;3.92;;;2.13;;
55210;SDS011;41082;52.822;6.666;2023-05-25T03:24:05;3.80;;;2.22;;
55210;SDS011;41082;52.822;6.666;2023-05-25T03:26:31;4.35;;;1.63;;
55210;SDS011;41082;52.822;6.666;2023-05-25T03:28:57;3.60;;;1.90;;
55210;SDS011;41082;52.822;6.666;2023-05-25T03:31:23;5.43;;;1.92;;
55210;SDS011;41082;52.822;6.666;2023-05-25T03:33:49;2.53;;;1.63;;
55210;SDS011;41082;52.822;6.666;2023-05-25T03:36:14;2.72;;;2.13;;
55210;SDS011;41082;52.822;6.666;2023-05-25T03:38:42;3.53;;;1.90;;
55210;SDS011;41082;52.822;6.666;2023-05-25T03:41:08;1.80;;;1.27;;
55210;SDS011;41082;52.822;6.666;2023-05-25T03:43:34;2.20;;;1.30;;
55210;SDS011;41082;52.822;6.666;2023-05-25T03:45:59;2.15;;;1.00;;
55210;SDS011;41082;52.822;6.666;2023-05-25T03:48:25;3.22;;;1.30;;
55210;SDS011;41082;52.822;6.666;2023-05-25T03:50:51;2.58;;;1.05;;
55210;SDS011;41082;52.822;6.666;2023-05-25T03:53:17;3.70;;;2.00;;
55210;SDS011;41082;52.822;6.666;2023-05-25T03:55:43;4.82;;;2.50;;
55210;SDS011;41082;52.822;6.666;2023-05-25T03:58:08;7.40;;;1.80;;
55210;SDS011;41082;52.822;6.666;2023-05-25T04:00:34;6.60;;;2.33;;
55210;SDS011;41082;52.822;6.666;2023-05-25T04:03:00;4.22;;;2.05;;
55210;SDS011;41082;52.822;6.666;2023-05-25T04:05:26;5.43;;;2.45;;
55210;SDS011;41082;52.822;6.666;2023-05-25T04:07:52;8.00;;;2.80;;
55210;SDS011;41082;52.822;6.666;2023-05-25T04:10:18;5.13;;;1.95;;
55210;SDS011;41082;52.822;6.666;2023-05-25T04:12:43;4.43;;;2.00;;
55210;SDS011;41082;52.822;6.666;2023-05-25T04:15:09;3.83;;;1.80;;
55210;SDS011;41082;52.822;6.666;2023-05-25T04:17:38;6.78;;;2.95;;
55210;SDS011;41082;52.822;6.666;2023-05-25T04:20:05;5.60;;;2.45;;
55210;SDS011;41082;52.822;6.666;2023-05-25T04:22:32;4.15;;;2.13;;
55210;SDS011;41082;52.822;6.666;2023-05-25T04:24:58;6.97;;;2.25;;
55210;SDS011;41082;52.822;6.666;2023-05-25T04:27:23;5.97;;;2.33;;
55210;SDS011;41082;52.822;6.666;2023-05-25T04:29:50;4.80;;;1.90;;
55210;SDS011;41082;52.822;6.666;2023-05-25T04:32:18;7.28;;;1.95;;
55210;SDS011;41082;52.822;6.666;2023-05-25T04:34:45;4.40;;;2.30;;
55210;SDS011;41082;52.822;6.666;2023-05-25T04:37:12;8.35;;;2.60;;
55210;SDS011;41082;52.822;6.666;2023-05-25T04:39:38;5.97;;;2.78;;
55210;SDS011;41082;52.822;6.666;2023-05-25T04:42:04;4.82;;;2.58;;
55210;SDS011;41082;52.822;6.666;2023-05-25T04:44:31;8.27;;;3.65;;
55210;SDS011;41082;52.822;6.666;2023-05-25T04:46:57;9.82;;;3.65;;
55210;SDS011;41082;52.822;6.666;2023-05-25T04:49:26;7.68;;;3.50;;
55210;SDS011;41082;52.822;6.666;2023-05-25T04:51:52;6.90;;;3.17;;
55210;SDS011;41082;52.822;6.666;2023-05-25T04:54:18;9.45;;;4.22;;
55210;SDS011;41082;52.822;6.666;2023-05-25T04:56:43;8.52;;;4.00;;
55210;SDS011;41082;52.822;6.666;2023-05-25T04:59:09;9.38;;;3.80;;
55210;SDS011;41082;52.822;6.666;2023-05-25T05:01:35;10.05;;;4.25;;
55210;SDS011;41082;52.822;6.666;2023-05-25T05:04:06;10.45;;;3.85;;
55210;SDS011;41082;52.822;6.666;2023-05-25T05:06:32;8.77;;;3.97;;
55210;SDS011;41082;52.822;6.666;2023-05-25T05:08:58;9.77;;;3.97;;
55210;SDS011;41082;52.822;6.666;2023-05-25T05:11:25;13.43;;;4.78;;
55210;SDS011;41082;52.822;6.666;2023-05-25T05:13:54;9.55;;;4.57;;
55210;SDS011;41082;52.822;6.666;2023-05-25T05:16:20;11.60;;;4.40;;
55210;SDS011;41082;52.822;6.666;2023-05-25T05:18:46;12.05;;;5.47;;
55210;SDS011;41082;52.822;6.666;2023-05-25T05:21:11;10.27;;;4.72;;
55210;SDS011;41082;52.822;6.666;2023-05-25T05:23:37;13.13;;;5.45;;
55210;SDS011;41082;52.822;6.666;2023-05-25T05:26:03;10.65;;;4.78;;
55210;SDS011;41082;52.822;6.666;2023-05-25T05:28:31;11.27;;;4.90;;
55210;SDS011;41082;52.822;6.666;2023-05-25T05:30:56;13.40;;;5.53;;
55210;SDS011;41082;52.822;6.666;2023-05-25T05:33:22;13.32;;;5.38;;
55210;SDS011;41082;52.822;6.666;2023-05-25T05:35:48;9.88;;;4.50;;
55210;SDS011;41082;52.822;6.666;2023-05-25T05:38:14;12.88;;;5.10;;
55210;SDS011;41082;52.822;6.666;2023-05-25T05:40:40;11.18;;;4.97;;
55210;SDS011;41082;52.822;6.666;2023-05-25T05:43:06;11.48;;;5.32;;
55210;SDS011;41082;52.822;6.666;2023-05-25T05:45:34;17.48;;;6.15;;
55210;SDS011;41082;52.822;6.666;2023-05-25T05:47:59;13.77;;;5.65;;
55210;SDS011;41082;52.822;6.666;2023-05-25T05:50:25;14.30;;;5.57;;
55210;SDS011;41082;52.822;6.666;2023-05-25T05:52:51;14.27;;;5.60;;
55210;SDS011;41082;52.822;6.666;2023-05-25T05:55:17;11.98;;;5.55;;
55210;SDS011;41082;52.822;6.666;2023-05-25T05:57:44;17.85;;;6.95;;
55210;SDS011;41082;52.822;6.666;2023-05-25T06:00:10;14.40;;;5.93;;
55210;SDS011;41082;52.822;6.666;2023-05-25T06:02:36;16.23;;;6.68;;
55210;SDS011;41082;52.822;6.666;2023-05-25T06:05:02;13.90;;;6.22;;
55210;SDS011;41082;52.822;6.666;2023-05-25T06:07:28;16.02;;;8.13;;
55210;SDS011;41082;52.822;6.666;2023-05-25T06:09:54;15.60;;;6.35;;
55210;SDS011;41082;52.822;6.666;2023-05-25T06:12:21;14.40;;;6.05;;
55210;SDS011;41082;52.822;6.666;2023-05-25T06:14:46;16.25;;;6.43;;
55210;SDS011;41082;52.822;6.666;2023-05-25T06:17:14;14.43;;;6.18;;
55210;SDS011;41082;52.822;6.666;2023-05-25T06:19:40;14.32;;;6.10;;
55210;SDS011;41082;52.822;6.666;2023-05-25T06:22:06;15.30;;;5.78;;
55210;SDS011;41082;52.822;6.666;2023-05-25T06:24:32;15.68;;;5.20;;
55210;SDS011;41082;52.822;6.666;2023-05-25T06:26:57;16.88;;;4.97;;
55210;SDS011;41082;52.822;6.666;2023-05-25T06:29:23;9.93;;;4.20;;
55210;SDS011;41082;52.822;6.666;2023-05-25T06:31:49;12.77;;;4.63;;
55210;SDS011;41082;52.822;6.666;2023-05-25T06:34:14;13.45;;;4.05;;
55210;SDS011;41082;52.822;6.666;2023-05-25T06:36:40;10.70;;;3.70;;
55210;SDS011;41082;52.822;6.666;2023-05-25T06:39:05;13.60;;;4.07;;
55210;SDS011;41082;52.822;6.666;2023-05-25T06:41:31;13.20;;;4.22;;
55210;SDS011;41082;52.822;6.666;2023-05-25T06:43:56;12.27;;;4.28;;
55210;SDS011;41082;52.822;6.666;2023-05-25T06:46:22;12.05;;;3.20;;
55210;SDS011;41082;52.822;6.666;2023-05-25T06:48:47;12.27;;;3.38;;
55210;SDS011;41082;52.822;6.666;2023-05-25T06:51:13;11.68;;;3.60;;
55210;SDS011;41082;52.822;6.666;2023-05-25T06:53:39;15.25;;;3.75;;
55210;SDS011;41082;52.822;6.666;2023-05-25T06:56:04;13.95;;;3.83;;
55210;SDS011;41082;52.822;6.666;2023-05-25T06:58:30;11.32;;;3.97;;
55210;SDS011;41082;52.822;6.666;2023-05-25T07:00:56;10.13;;;3.40;;
55210;SDS011;41082;52.822;6.666;2023-05-25T07:03:22;12.38;;;3.33;;
55210;SDS011;41082;52.822;6.666;2023-05-25T07:05:47;12.63;;;3.58;;
55210;SDS011;41082;52.822;6.666;2023-05-25T07:08:13;10.82;;;3.00;;
55210;SDS011;41082;52.822;6.666;2023-05-25T07:10:39;14.05;;;3.78;;
55210;SDS011;41082;52.822;6.666;2023-05-25T07:13:04;12.77;;;3.00;;
55210;SDS011;41082;52.822;6.666;2023-05-25T07:15:30;11.07;;;3.50;;
55210;SDS011;41082;52.822;6.666;2023-05-25T07:17:55;13.45;;;3.30;;
55210;SDS011;41082;52.822;6.666;2023-05-25T07:20:21;12.48;;;3.42;;
55210;SDS011;41082;52.822;6.666;2023-05-25T07:22:47;12.38;;;3.20;;
55210;SDS011;41082;52.822;6.666;2023-05-25T07:25:13;11.00;;;3.08;;
55210;SDS011;41082;52.822;6.666;2023-05-25T07:27:39;12.27;;;2.10;;
55210;SDS011;41082;52.822;6.666;2023-05-25T07:30:06;12.95;;;2.70;;
55210;SDS011;41082;52.822;6.666;2023-05-25T07:32:32;10.23;;;2.00;;
55210;SDS011;41082;52.822;6.666;2023-05-25T07:34:58;11.52;;;2.42;;
55210;SDS011;41082;52.822;6.666;2023-05-25T07:37:23;10.10;;;1.70;;
55210;SDS011;41082;52.822;6.666;2023-05-25T07:39:49;10.07;;;1.95;;
55210;SDS011;41082;52.822;6.666;2023-05-25T07:42:15;12.90;;;2.17;;
55210;SDS011;41082;52.822;6.666;2023-05-25T07:44:45;11.25;;;2.28;;
55210;SDS011;41082;52.822;6.666;2023-05-25T07:47:13;11.82;;;2.25;;
55210;SDS011;41082;52.822;6.666;2023-05-25T07:49:39;16.85;;;2.50;;
55210;SDS011;41082;52.822;6.666;2023-05-25T07:52:05;11.00;;;2.22;;
55210;SDS011;41082;52.822;6.666;2023-05-25T07:54:30;10.98;;;1.70;;
55210;SDS011;41082;52.822;6.666;2023-05-25T07:56:56;9.85;;;2.33;;
55210;SDS011;41082;52.822;6.666;2023-05-25T07:59:22;12.07;;;2.75;;
55210;SDS011;41082;52.822;6.666;2023-05-25T08:01:49;8.10;;;1.90;;
55210;SDS011;41082;52.822;6.666;2023-05-25T08:04:14;11.15;;;1.85;;
55210;SDS011;41082;52.822;6.666;2023-05-25T08:06:40;12.18;;;2.25;;
55210;SDS011;41082;52.822;6.666;2023-05-25T08:09:06;12.75;;;2.38;;
55210;SDS011;41082;52.822;6.666;2023-05-25T08:11:32;14.95;;;2.47;;
55210;SDS011;41082;52.822;6.666;2023-05-25T08:13:58;12.70;;;2.17;;
55210;SDS011;41082;52.822;6.666;2023-05-25T08:16:24;14.75;;;2.72;;
55210;SDS011;41082;52.822;6.666;2023-05-25T08:18:49;12.38;;;2.15;;
55210;SDS011;41082;52.822;6.666;2023-05-25T08:21:15;10.60;;;2.10;;
55210;SDS011;41082;52.822;6.666;2023-05-25T08:23:41;15.13;;;2.80;;
55210;SDS011;41082;52.822;6.666;2023-05-25T08:26:09;9.98;;;2.10;;
55210;SDS011;41082;52.822;6.666;2023-05-25T08:28:35;12.20;;;2.50;;
55210;SDS011;41082;52.822;6.666;2023-05-25T08:31:01;9.77;;;2.05;;
55210;SDS011;41082;52.822;6.666;2023-05-25T08:33:27;14.25;;;2.65;;
55210;SDS011;41082;52.822;6.666;2023-05-25T08:35:53;10.52;;;2.17;;
55210;SDS011;41082;52.822;6.666;2023-05-25T08:38:18;14.05;;;2.45;;
55210;SDS011;41082;52.822;6.666;2023-05-25T08:40:49;14.70;;;2.73;;
55210;SDS011;41082;52.822;6.666;2023-05-25T08:43:26;13.93;;;2.47;;
55210;SDS011;41082;52.822;6.666;2023-05-25T08:45:52;13.95;;;2.30;;
55210;SDS011;41082;52.822;6.666;2023-05-25T08:48:20;14.93;;;2.70;;
55210;SDS011;41082;52.822;6.666;2023-05-25T08:50:46;19.38;;;3.08;;
55210;SDS011;41082;52.822;6.666;2023-05-25T08:53:13;12.15;;;2.80;;
55210;SDS011;41082;52.822;6.666;2023-05-25T08:55:40;12.55;;;3.22;;
55210;SDS011;41082;52.822;6.666;2023-05-25T08:58:15;18.33;;;3.92;;
55210;SDS011;41082;52.822;6.666;2023-05-25T09:00:49;14.35;;;3.13;;
55210;SDS011;41082;52.822;6.666;2023-05-25T09:03:18;15.30;;;3.53;;
55210;SDS011;41082;52.822;6.666;2023-05-25T09:05:45;16.17;;;2.88;;
55210;SDS011;41082;52.822;6.666;2023-05-25T09:08:11;17.08;;;3.10;;
55210;SDS011;41082;52.822;6.666;2023-05-25T09:10:38;13.23;;;2.42;;
55210;SDS011;41082;52.822;6.666;2023-05-25T09:13:04;16.75;;;2.50;;
55210;SDS011;41082;52.822;6.666;2023-05-25T09:15:30;15.25;;;2.75;;
55210;SDS011;41082;52.822;6.666;2023-05-25T09:17:56;14.80;;;2.63;;
55210;SDS011;41082;52.822;6.666;2023-05-25T09:20:22;17.10;;;3.25;;
55210;SDS011;41082;52.822;6.666;2023-05-25T09:22:48;14.43;;;3.05;;
55210;SDS011;41082;52.822;6.666;2023-05-25T09:25:17;15.73;;;3.17;;
55210;SDS011;41082;52.822;6.666;2023-05-25T09:27:46;15.07;;;2.65;;
55210;SDS011;41082;52.822;6.666;2023-05-25T09:30:13;18.65;;;3.63;;
55210;SDS011;41082;52.822;6.666;2023-05-25T09:32:39;19.30;;;2.80;;
55210;SDS011;41082;52.822;6.666;2023-05-25T09:35:09;17.67;;;3.47;;
55210;SDS011;41082;52.822;6.666;2023-05-25T09:37:39;17.02;;;3.92;;
55210;SDS011;41082;52.822;6.666;2023-05-25T09:40:06;17.30;;;3.65;;
55210;SDS011;41082;52.822;6.666;2023-05-25T09:42:33;15.93;;;2.80;;
55210;SDS011;41082;52.822;6.666;2023-05-25T09:44:59;16.67;;;3.13;;
55210;SDS011;41082;52.822;6.666;2023-05-25T09:47:28;18.85;;;3.95;;
55210;SDS011;41082;52.822;6.666;2023-05-25T09:49:57;13.25;;;3.05;;
55210;SDS011;41082;52.822;6.666;2023-05-25T09:52:24;17.15;;;3.78;;
55210;SDS011;41082;52.822;6.666;2023-05-25T09:54:50;20.85;;;3.65;;
55210;SDS011;41082;52.822;6.666;2023-05-25T09:57:18;21.67;;;3.28;;
55210;SDS011;41082;52.822;6.666;2023-05-25T09:59:44;17.17;;;3.90;;
55210;SDS011;41082;52.822;6.666;2023-05-25T10:02:11;19.98;;;3.45;;
55210;SDS011;41082;52.822;6.666;2023-05-25T10:04:37;18.88;;;3.45;;
55210;SDS011;41082;52.822;6.666;2023-05-25T10:07:03;14.43;;;3.08;;
55210;SDS011;41082;52.822;6.666;2023-05-25T10:09:30;22.75;;;4.15;;
55210;SDS011;41082;52.822;6.666;2023-05-25T10:11:58;18.40;;;3.85;;
55210;SDS011;41082;52.822;6.666;2023-05-25T10:14:26;18.35;;;3.55;;
55210;SDS011;41082;52.822;6.666;2023-05-25T10:16:53;22.42;;;3.95;;
55210;SDS011;41082;52.822;6.666;2023-05-25T10:19:24;15.60;;;3.58;;
55210;SDS011;41082;52.822;6.666;2023-05-25T10:21:57;21.70;;;3.78;;
55210;SDS011;41082;52.822;6.666;2023-05-25T10:26:58;16.45;;;3.47;;
55210;SDS011;41082;52.822;6.666;2023-05-25T10:29:26;16.42;;;3.10;;
55210;SDS011;41082;52.822;6.666;2023-05-25T10:31:52;18.27;;;3.13;;
55210;SDS011;41082;52.822;6.666;2023-05-25T10:34:19;19.77;;;3.92;;
55210;SDS011;41082;52.822;6.666;2023-05-25T10:36:45;19.88;;;4.18;;
55210;SDS011;41082;52.822;6.666;2023-05-25T10:39:12;20.35;;;3.60;;
55210;SDS011;41082;52.822;6.666;2023-05-25T10:41:40;15.70;;;3.50;;
55210;SDS011;41082;52.822;6.666;2023-05-25T10:44:06;16.75;;;3.58;;
55210;SDS011;41082;52.822;6.666;2023-05-25T10:46:32;14.80;;;2.70;;
55210;SDS011;41082;52.822;6.666;2023-05-25T10:48:59;16.73;;;2.97;;
55210;SDS011;41082;52.822;6.666;2023-05-25T10:51:35;16.90;;;3.67;;
55210;SDS011;41082;52.822;6.666;2023-05-25T10:54:02;22.55;;;3.88;;
55210;SDS011;41082;52.822;6.666;2023-05-25T10:56:28;13.52;;;2.80;;
55210;SDS011;41082;52.822;6.666;2023-05-25T10:58:54;19.13;;;3.45;;
55210;SDS011;41082;52.822;6.666;2023-05-25T11:01:20;18.20;;;3.50;;
55210;SDS011;41082;52.822;6.666;2023-05-25T11:03:47;15.30;;;2.78;;
55210;SDS011;41082;52.822;6.666;2023-05-25T11:09:04;17.85;;;3.80;;
55210;SDS011;41082;52.822;6.666;2023-05-25T11:19:47;19.80;;;3.60;;
55210;SDS011;41082;52.822;6.666;2023-05-25T11:22:21;17.95;;;3.75;;
55210;SDS011;41082;52.822;6.666;2023-05-25T11:27:27;22.10;;;3.20;;
55210;SDS011;41082;52.822;6.666;2023-05-25T11:29:54;13.48;;;2.53;;
55210;SDS011;41082;52.822;6.666;2023-05-25T11:32:21;17.90;;;3.38;;
55210;SDS011;41082;52.822;6.666;2023-05-25T11:34:50;15.65;;;3.17;;
55210;SDS011;41082;52.822;6.666;2023-05-25T11:37:17;17.52;;;3.25;;
55210;SDS011;41082;52.822;6.666;2023-05-25T11:39:51;17.20;;;3.15;;
55210;SDS011;41082;52.822;6.666;2023-05-25T11:42:21;22.25;;;3.92;;
55210;SDS011;41082;52.822;6.666;2023-05-25T11:44:47;15.23;;;3.35;;
55210;SDS011;41082;52.822;6.666;2023-05-25T11:47:13;15.05;;;3.00;;
55210;SDS011;41082;52.822;6.666;2023-05-25T11:49:43;18.45;;;3.33;;
55210;SDS011;41082;52.822;6.666;2023-05-25T11:52:11;16.67;;;4.07;;
55210;SDS011;41082;52.822;6.666;2023-05-25T11:54:38;19.60;;;3.55;;
55210;SDS011;41082;52.822;6.666;2023-05-25T11:57:40;17.83;;;3.58;;
55210;SDS011;41082;52.822;6.666;2023-05-25T11:59:58;15.75;;;3.50;;
55210;SDS011;41082;52.822;6.666;2023-05-25T12:02:35;15.63;;;3.88;;
55210;SDS011;41082;52.822;6.666;2023-05-25T12:05:02;18.42;;;3.90;;
55210;SDS011;41082;52.822;6.666;2023-05-25T12:07:29;15.73;;;3.47;;
55210;SDS011;41082;52.822;6.666;2023-05-25T12:10:05;16.98;;;3.55;;
55210;SDS011;41082;52.822;6.666;2023-05-25T12:15:07;16.45;;;3.63;;
55210;SDS011;41082;52.822;6.666;2023-05-25T12:17:34;21.27;;;4.10;;
55210;SDS011;41082;52.822;6.666;2023-05-25T12:20:00;17.23;;;3.47;;
55210;SDS011;41082;52.822;6.666;2023-05-25T12:22:26;17.25;;;3.90;;
55210;SDS011;41082;52.822;6.666;2023-05-25T12:24:52;21.77;;;3.80;;
55210;SDS011;41082;52.822;6.666;2023-05-25T12:27:18;17.45;;;3.40;;
55210;SDS011;41082;52.822;6.666;2023-05-25T12:29:46;17.17;;;3.60;;
55210;SDS011;41082;52.822;6.666;2023-05-25T12:32:12;14.07;;;3.35;;
55210;SDS011;41082;52.822;6.666;2023-05-25T12:34:38;16.70;;;4.28;;
55210;SDS011;41082;52.822;6.666;2023-05-25T12:37:03;18.25;;;3.50;;
55210;SDS011;41082;52.822;6.666;2023-05-25T12:41:55;22.20;;;3.72;;
55210;SDS011;41082;52.822;6.666;2023-05-25T12:44:28;19.88;;;3.70;;
55210;SDS011;41082;52.822;6.666;2023-05-25T12:47:10;14.77;;;3.33;;
55210;SDS011;41082;52.822;6.666;2023-05-25T12:49:37;20.95;;;4.13;;
55210;SDS011;41082;52.822;6.666;2023-05-25T12:52:04;17.10;;;3.90;;
55210;SDS011;41082;52.822;6.666;2023-05-25T12:57:02;14.95;;;3.53;;
55210;SDS011;41082;52.822;6.666;2023-05-25T12:59:32;17.50;;;3.92;;
55210;SDS011;41082;52.822;6.666;2023-05-25T13:01:59;16.48;;;3.78;;
55210;SDS011;41082;52.822;6.666;2023-05-25T13:04:25;20.60;;;3.67;;
55210;SDS011;41082;52.822;6.666;2023-05-25T13:06:51;18.65;;;4.00;;
55210;SDS011;41082;52.822;6.666;2023-05-25T13:09:18;20.40;;;4.55;;
55210;SDS011;41082;52.822;6.666;2023-05-25T13:11:43;18.90;;;4.28;;
55210;SDS011;41082;52.822;6.666;2023-05-25T13:14:09;15.00;;;3.65;;
55210;SDS011;41082;52.822;6.666;2023-05-25T13:16:35;16.45;;;3.75;;
55210;SDS011;41082;52.822;6.666;2023-05-25T13:19:01;20.85;;;4.22;;
55210;SDS011;41082;52.822;6.666;2023-05-25T13:21:26;21.52;;;4.18;;
55210;SDS011;41082;52.822;6.666;2023-05-25T13:23:52;17.38;;;3.55;;
55210;SDS011;41082;52.822;6.666;2023-05-25T13:26:18;22.05;;;4.57;;
55210;SDS011;41082;52.822;6.666;2023-05-25T13:28:44;18.23;;;4.03;;
55210;SDS011;41082;52.822;6.666;2023-05-25T13:31:12;18.50;;;3.50;;
55210;SDS011;41082;52.822;6.666;2023-05-25T13:33:37;16.20;;;3.83;;
55210;SDS011;41082;52.822;6.666;2023-05-25T13:36:03;14.80;;;3.25;;
55210;SDS011;41082;52.822;6.666;2023-05-25T13:38:32;17.00;;;3.17;;
55210;SDS011;41082;52.822;6.666;2023-05-25T13:40:58;24.27;;;4.35;;
55210;SDS011;41082;52.822;6.666;2023-05-25T13:43:25;17.55;;;3.88;;
55210;SDS011;41082;52.822;6.666;2023-05-25T13:45:51;19.92;;;4.15;;
55210;SDS011;41082;52.822;6.666;2023-05-25T13:48:16;18.17;;;3.50;;
55210;SDS011;41082;52.822;6.666;2023-05-25T13:50:42;18.80;;;4.57;;
55210;SDS011;41082;52.822;6.666;2023-05-25T13:53:10;17.67;;;3.97;;
55210;SDS011;41082;52.822;6.666;2023-05-25T13:55:37;17.52;;;4.50;;
55210;SDS011;41082;52.822;6.666;2023-05-25T13:58:03;16.92;;;3.80;;
55210;SDS011;41082;52.822;6.666;2023-05-25T14:00:28;19.50;;;4.25;;
55210;SDS011;41082;52.822;6.666;2023-05-25T14:02:54;15.90;;;3.22;;
55210;SDS011;41082;52.822;6.666;2023-05-25T14:05:19;20.35;;;4.50;;
55210;SDS011;41082;52.822;6.666;2023-05-25T14:07:46;18.15;;;4.30;;
55210;SDS011;41082;52.822;6.666;2023-05-25T14:10:12;16.35;;;4.13;;
55210;SDS011;41082;52.822;6.666;2023-05-25T14:12:37;19.92;;;3.65;;
55210;SDS011;41082;52.822;6.666;2023-05-25T14:15:04;16.30;;;3.05;;
55210;SDS011;41082;52.822;6.666;2023-05-25T14:17:30;15.98;;;3.72;;
55210;SDS011;41082;52.822;6.666;2023-05-25T14:19:55;15.15;;;3.60;;
55210;SDS011;41082;52.822;6.666;2023-05-25T14:22:22;20.98;;;4.18;;
55210;SDS011;41082;52.822;6.666;2023-05-25T14:24:48;18.88;;;3.67;;
55210;SDS011;41082;52.822;6.666;2023-05-25T14:27:14;19.83;;;3.80;;
55210;SDS011;41082;52.822;6.666;2023-05-25T14:29:44;28.65;;;4.90;;
55210;SDS011;41082;52.822;6.666;2023-05-25T14:32:16;19.88;;;4.20;;
55210;SDS011;41082;52.822;6.666;2023-05-25T14:34:43;17.67;;;4.78;;
55210;SDS011;41082;52.822;6.666;2023-05-25T14:37:09;17.60;;;3.85;;
55210;SDS011;41082;52.822;6.666;2023-05-25T14:39:35;19.17;;;3.80;;
55210;SDS011;41082;52.822;6.666;2023-05-25T14:42:01;17.88;;;3.58;;
55210;SDS011;41082;52.822;6.666;2023-05-25T14:44:28;21.58;;;4.93;;
55210;SDS011;41082;52.822;6.666;2023-05-25T14:46:53;19.05;;;3.75;;
55210;SDS011;41082;52.822;6.666;2023-05-25T14:49:19;20.20;;;4.22;;
55210;SDS011;41082;52.822;6.666;2023-05-25T14:51:49;16.77;;;3.80;;
55210;SDS011;41082;52.822;6.666;2023-05-25T14:54:14;20.05;;;4.13;;
55210;SDS011;41082;52.822;6.666;2023-05-25T14:56:40;22.90;;;4.25;;
55210;SDS011;41082;52.822;6.666;2023-05-25T14:59:06;17.52;;;4.00;;
55210;SDS011;41082;52.822;6.666;2023-05-25T15:01:31;19.70;;;3.85;;
55210;SDS011;41082;52.822;6.666;2023-05-25T15:03:57;19.15;;;4.22;;